DLH947 EGCC-EDDF
Flight info
| Callsign | DLH947 |
|---|---|
| Flight time | 1h 28m |
| Altitude | 37000 |
| Route | SONEX L975 DESIG L603 DOLAS DCT NAVPI DCT NOLRU DCT DIXAT DIXAT1D |
| Aircraft | A321/M-SDE2E3FGIJ1LORWXYZ/HB1 |
Departure
| Time | 2026-04-19 04:26 |
|---|---|
| Airport | Manchester Airport (EGCC) |
Arrival
| Time | 2026-04-19 05:55 |
|---|---|
| Airport | Frankfurt Main Airport (EDDF) |
| Time | Latitude | Longitude | Altitude | Speed | Heading |
|---|---|---|---|---|---|
| 2026-04-19 03:44 | 53.36780 | -2.28976 | 241 ft | 0 kts | 136° |
| 2026-04-19 04:11 | 53.36794 | -2.28996 | 240 ft | 4 kts | 150° |
| 2026-04-19 04:11 | 53.36818 | -2.29009 | 241 ft | 4 kts | 184° |
| 2026-04-19 04:12 | 53.36840 | -2.29002 | 241 ft | 1 kts | 197° |
| 2026-04-19 04:12 | 53.36844 | -2.29000 | 241 ft | 0 kts | 197° |
| 2026-04-19 04:18 | 53.36843 | -2.29001 | 241 ft | 1 kts | 197° |
| 2026-04-19 04:18 | 53.36823 | -2.29011 | 241 ft | 6 kts | 197° |
| 2026-04-19 04:18 | 53.36766 | -2.29037 | 240 ft | 11 kts | 182° |
| 2026-04-19 04:19 | 53.36691 | -2.28949 | 240 ft | 16 kts | 137° |
| 2026-04-19 04:19 | 53.36598 | -2.28829 | 240 ft | 17 kts | 127° |
| 2026-04-19 04:19 | 53.36549 | -2.28662 | 241 ft | 15 kts | 133° |
| 2026-04-19 04:19 | 53.36470 | -2.28529 | 241 ft | 17 kts | 134° |
| 2026-04-19 04:20 | 53.36383 | -2.28384 | 241 ft | 19 kts | 135° |
| 2026-04-19 04:20 | 53.36289 | -2.28223 | 241 ft | 20 kts | 133° |
| 2026-04-19 04:20 | 53.36188 | -2.28053 | 241 ft | 22 kts | 134° |
| 2026-04-19 04:20 | 53.36088 | -2.27885 | 242 ft | 13 kts | 135° |
| 2026-04-19 04:21 | 53.35999 | -2.27832 | 241 ft | 15 kts | 182° |
| 2026-04-19 04:21 | 53.35886 | -2.27850 | 240 ft | 17 kts | 186° |
| 2026-04-19 04:21 | 53.35757 | -2.27872 | 239 ft | 20 kts | 186° |
| 2026-04-19 04:21 | 53.35611 | -2.27895 | 238 ft | 22 kts | 186° |
| 2026-04-19 04:22 | 53.35467 | -2.27927 | 236 ft | 16 kts | 196° |
| 2026-04-19 04:22 | 53.35374 | -2.28051 | 234 ft | 19 kts | 224° |
| 2026-04-19 04:22 | 53.35278 | -2.28204 | 232 ft | 15 kts | 214° |
| 2026-04-19 04:22 | 53.35217 | -2.28193 | 231 ft | 8 kts | 178° |
| 2026-04-19 04:23 | 53.35153 | -2.28200 | 230 ft | 11 kts | 178° |
| 2026-04-19 04:23 | 53.35083 | -2.28136 | 231 ft | 12 kts | 143° |
| 2026-04-19 04:23 | 53.35013 | -2.28039 | 231 ft | 14 kts | 141° |
| 2026-04-19 04:23 | 53.34934 | -2.27933 | 232 ft | 15 kts | 141° |
| 2026-04-19 04:24 | 53.34885 | -2.27868 | 233 ft | 6 kts | 142° |
| 2026-04-19 04:24 | 53.34856 | -2.27830 | 232 ft | 0 kts | 141° |
| 2026-04-19 04:24 | 53.34856 | -2.27829 | 232 ft | 0 kts | 141° |
| 2026-04-19 04:24 | 53.34850 | -2.27823 | 234 ft | 3 kts | 150° |
| 2026-04-19 04:25 | 53.34815 | -2.27813 | 231 ft | 7 kts | 177° |
| 2026-04-19 04:25 | 53.34757 | -2.27846 | 230 ft | 10 kts | 219° |
| 2026-04-19 04:25 | 53.34740 | -2.27880 | 230 ft | 0 kts | 230° |
| 2026-04-19 04:25 | 53.34689 | -2.27983 | 230 ft | 44 kts | 231° |
| 2026-04-19 04:26 | 53.34324 | -2.28740 | 221 ft | 122 kts | 231° |
| 2026-04-19 04:26 | 53.33655 | -2.30091 | 451 ft | 162 kts | 230° |
| 2026-04-19 04:26 | 53.32943 | -2.31541 | 1425 ft | 160 kts | 234° |
| 2026-04-19 04:26 | 53.32212 | -2.33057 | 2040 ft | 174 kts | 236° |
| 2026-04-19 04:27 | 53.31580 | -2.34862 | 2342 ft | 191 kts | 253° |
| 2026-04-19 04:27 | 53.31354 | -2.37157 | 2564 ft | 212 kts | 273° |
| 2026-04-19 04:27 | 53.31667 | -2.39691 | 2896 ft | 234 kts | 294° |
| 2026-04-19 04:27 | 53.32592 | -2.41980 | 3636 ft | 242 kts | 315° |
| 2026-04-19 04:28 | 53.34026 | -2.43502 | 4464 ft | 249 kts | 338° |
| 2026-04-19 04:28 | 53.35768 | -2.43952 | 4911 ft | 259 kts | 358° |
| 2026-04-19 04:28 | 53.37548 | -2.43836 | 4994 ft | 259 kts | 359° |
| 2026-04-19 04:28 | 53.39350 | -2.43723 | 5009 ft | 257 kts | 353° |
| 2026-04-19 04:29 | 53.41079 | -2.44339 | 5011 ft | 254 kts | 340° |
| 2026-04-19 04:29 | 53.42766 | -2.45221 | 5011 ft | 254 kts | 341° |
| 2026-04-19 04:29 | 53.44532 | -2.45541 | 5012 ft | 259 kts | 2° |
| 2026-04-19 04:29 | 53.46277 | -2.44696 | 5013 ft | 266 kts | 24° |
| 2026-04-19 04:30 | 53.47718 | -2.42770 | 5002 ft | 272 kts | 48° |
| 2026-04-19 04:30 | 53.48621 | -2.39955 | 5009 ft | 277 kts | 73° |
| 2026-04-19 04:30 | 53.48771 | -2.36725 | 5011 ft | 280 kts | 98° |
| 2026-04-19 04:30 | 53.48381 | -2.33498 | 5010 ft | 281 kts | 97° |
| 2026-04-19 04:31 | 53.48415 | -2.30241 | 5008 ft | 279 kts | 79° |
| 2026-04-19 04:31 | 53.48750 | -2.27017 | 5014 ft | 279 kts | 78° |
| 2026-04-19 04:31 | 53.49098 | -2.23805 | 5015 ft | 279 kts | 77° |
| 2026-04-19 04:31 | 53.49450 | -2.20603 | 5007 ft | 279 kts | 78° |
| 2026-04-19 04:32 | 53.49794 | -2.17420 | 5012 ft | 279 kts | 78° |
| 2026-04-19 04:32 | 53.50142 | -2.14175 | 5366 ft | 285 kts | 78° |
| 2026-04-19 04:32 | 53.50487 | -2.10902 | 6352 ft | 284 kts | 78° |
| 2026-04-19 04:32 | 53.50830 | -2.07608 | 7217 ft | 287 kts | 78° |
| 2026-04-19 04:33 | 53.51174 | -2.04275 | 8019 ft | 291 kts | 78° |
| 2026-04-19 04:33 | 53.51519 | -2.00931 | 8807 ft | 296 kts | 79° |
| 2026-04-19 04:33 | 53.51875 | -1.97494 | 9600 ft | 301 kts | 79° |
| 2026-04-19 04:33 | 53.52239 | -1.93998 | 10370 ft | 305 kts | 79° |
| 2026-04-19 04:34 | 53.52475 | -1.90360 | 10744 ft | 325 kts | 90° |
| 2026-04-19 04:34 | 53.52236 | -1.86457 | 10974 ft | 345 kts | 103° |
| 2026-04-19 04:34 | 53.51548 | -1.82532 | 11495 ft | 352 kts | 109° |
| 2026-04-19 04:34 | 53.50826 | -1.78607 | 12163 ft | 357 kts | 108° |
| 2026-04-19 04:35 | 53.50112 | -1.74593 | 12842 ft | 361 kts | 108° |
| 2026-04-19 04:35 | 53.49402 | -1.70528 | 13518 ft | 364 kts | 108° |
| 2026-04-19 04:35 | 53.48682 | -1.66409 | 14190 ft | 368 kts | 108° |
| 2026-04-19 04:35 | 53.47957 | -1.62257 | 14800 ft | 372 kts | 108° |
| 2026-04-19 04:36 | 53.47231 | -1.58117 | 15409 ft | 375 kts | 109° |
| 2026-04-19 04:36 | 53.46482 | -1.53897 | 16023 ft | 378 kts | 109° |
| 2026-04-19 04:36 | 53.45719 | -1.49646 | 16657 ft | 382 kts | 109° |
| 2026-04-19 04:36 | 53.44945 | -1.45357 | 17284 ft | 385 kts | 109° |
| 2026-04-19 04:37 | 53.44163 | -1.41025 | 17904 ft | 389 kts | 109° |
| 2026-04-19 04:37 | 53.43374 | -1.36660 | 18509 ft | 392 kts | 110° |
| 2026-04-19 04:37 | 53.42588 | -1.32323 | 19029 ft | 395 kts | 110° |
| 2026-04-19 04:37 | 53.41780 | -1.27887 | 19542 ft | 399 kts | 110° |
| 2026-04-19 04:38 | 53.40968 | -1.23419 | 20053 ft | 402 kts | 109° |
| 2026-04-19 04:38 | 53.40149 | -1.18901 | 20572 ft | 406 kts | 110° |
| 2026-04-19 04:38 | 53.39326 | -1.14359 | 21081 ft | 409 kts | 109° |
| 2026-04-19 04:38 | 53.38492 | -1.09775 | 21563 ft | 412 kts | 109° |
| 2026-04-19 04:39 | 53.37648 | -1.05161 | 22040 ft | 416 kts | 109° |
| 2026-04-19 04:39 | 53.36791 | -1.00515 | 22516 ft | 419 kts | 110° |
| 2026-04-19 04:39 | 53.35923 | -0.95828 | 22996 ft | 422 kts | 110° |
| 2026-04-19 04:39 | 53.35051 | -0.91116 | 23455 ft | 425 kts | 110° |
| 2026-04-19 04:40 | 53.34183 | -0.86428 | 23904 ft | 429 kts | 109° |
| 2026-04-19 04:40 | 53.33295 | -0.81650 | 24294 ft | 431 kts | 110° |
| 2026-04-19 04:40 | 53.32400 | -0.76839 | 24685 ft | 434 kts | 110° |
| 2026-04-19 04:40 | 53.31500 | -0.72004 | 25078 ft | 437 kts | 110° |
| 2026-04-19 04:41 | 53.30590 | -0.67129 | 25472 ft | 440 kts | 110° |
| 2026-04-19 04:41 | 53.29671 | -0.62220 | 25864 ft | 442 kts | 110° |
| 2026-04-19 04:41 | 53.28748 | -0.57301 | 26252 ft | 445 kts | 110° |
| 2026-04-19 04:41 | 53.27811 | -0.52344 | 26644 ft | 447 kts | 110° |
| 2026-04-19 04:42 | 53.26880 | -0.47433 | 27018 ft | 450 kts | 110° |
| 2026-04-19 04:42 | 53.25933 | -0.42435 | 27390 ft | 452 kts | 110° |
| 2026-04-19 04:42 | 53.24979 | -0.37404 | 27763 ft | 455 kts | 110° |
| 2026-04-19 04:42 | 53.24015 | -0.32337 | 28132 ft | 458 kts | 110° |
| 2026-04-19 04:43 | 53.23045 | -0.27259 | 28491 ft | 460 kts | 110° |
| 2026-04-19 04:43 | 53.22066 | -0.22141 | 28855 ft | 463 kts | 111° |
| 2026-04-19 04:43 | 53.21082 | -0.17009 | 29212 ft | 465 kts | 111° |
| 2026-04-19 04:43 | 53.20089 | -0.11853 | 29573 ft | 468 kts | 111° |
| 2026-04-19 04:44 | 53.19098 | -0.06730 | 29917 ft | 471 kts | 111° |
| 2026-04-19 04:44 | 53.18087 | -0.01516 | 30257 ft | 473 kts | 111° |
| 2026-04-19 04:44 | 53.17069 | 0.03722 | 30570 ft | 476 kts | 111° |
| 2026-04-19 04:44 | 53.16044 | 0.08980 | 30850 ft | 478 kts | 111° |
| 2026-04-19 04:45 | 53.15016 | 0.14258 | 31116 ft | 480 kts | 111° |
| 2026-04-19 04:45 | 53.13978 | 0.19586 | 31375 ft | 482 kts | 111° |
| 2026-04-19 04:45 | 53.12936 | 0.24909 | 31624 ft | 484 kts | 111° |
| 2026-04-19 04:45 | 53.11900 | 0.30178 | 31858 ft | 485 kts | 111° |
| 2026-04-19 04:46 | 53.10844 | 0.35519 | 32117 ft | 486 kts | 112° |
| 2026-04-19 04:46 | 53.09782 | 0.40875 | 32455 ft | 485 kts | 112° |
| 2026-04-19 04:46 | 53.08722 | 0.46216 | 32785 ft | 484 kts | 112° |
| 2026-04-19 04:46 | 53.07662 | 0.51538 | 33106 ft | 484 kts | 112° |
| 2026-04-19 04:47 | 53.06613 | 0.56794 | 33420 ft | 483 kts | 112° |
| 2026-04-19 04:47 | 53.05556 | 0.62099 | 33723 ft | 483 kts | 112° |
| 2026-04-19 04:47 | 53.04496 | 0.67396 | 34040 ft | 482 kts | 112° |
| 2026-04-19 04:47 | 53.03434 | 0.72673 | 34337 ft | 481 kts | 112° |
| 2026-04-19 04:48 | 53.02368 | 0.77944 | 34584 ft | 481 kts | 112° |
| 2026-04-19 04:48 | 53.01299 | 0.83209 | 34828 ft | 480 kts | 112° |
| 2026-04-19 04:48 | 53.00226 | 0.88467 | 35064 ft | 480 kts | 113° |
| 2026-04-19 04:48 | 52.99155 | 0.93714 | 35302 ft | 480 kts | 112° |
| 2026-04-19 04:49 | 52.98084 | 0.98966 | 35543 ft | 479 kts | 112° |
| 2026-04-19 04:49 | 52.96992 | 1.04191 | 35783 ft | 479 kts | 114° |
| 2026-04-19 04:49 | 52.95855 | 1.09373 | 36012 ft | 478 kts | 115° |
| 2026-04-19 04:49 | 52.94682 | 1.14540 | 36252 ft | 477 kts | 115° |
| 2026-04-19 04:50 | 52.93509 | 1.19602 | 36477 ft | 477 kts | 115° |
| 2026-04-19 04:50 | 52.92312 | 1.24744 | 36695 ft | 476 kts | 115° |
| 2026-04-19 04:50 | 52.91121 | 1.29885 | 36905 ft | 476 kts | 115° |
| 2026-04-19 04:50 | 52.89941 | 1.35014 | 37119 ft | 476 kts | 115° |
| 2026-04-19 04:51 | 52.88779 | 1.40081 | 37252 ft | 476 kts | 115° |
| 2026-04-19 04:51 | 52.87607 | 1.45209 | 37270 ft | 474 kts | 115° |
| 2026-04-19 04:51 | 52.85272 | 1.55425 | 37273 ft | 473 kts | 115° |
| 2026-04-19 04:52 | 52.82941 | 1.65544 | 37264 ft | 472 kts | 115° |
| 2026-04-19 04:52 | 52.80585 | 1.75692 | 37265 ft | 472 kts | 116° |
| 2026-04-19 04:53 | 52.78220 | 1.85825 | 37271 ft | 472 kts | 116° |
| 2026-04-19 04:53 | 52.75865 | 1.95872 | 37267 ft | 472 kts | 116° |
| 2026-04-19 04:54 | 52.73475 | 2.06000 | 37268 ft | 472 kts | 116° |
| 2026-04-19 04:54 | 52.71091 | 2.16046 | 37266 ft | 472 kts | 116° |
| 2026-04-19 04:55 | 52.68692 | 2.26143 | 37263 ft | 472 kts | 117° |
| 2026-04-19 04:55 | 52.66299 | 2.36168 | 37271 ft | 472 kts | 117° |
| 2026-04-19 04:56 | 52.63890 | 2.46234 | 37264 ft | 471 kts | 117° |
| 2026-04-19 04:56 | 52.61462 | 2.56273 | 37269 ft | 471 kts | 117° |
| 2026-04-19 04:57 | 52.59045 | 2.66251 | 37265 ft | 471 kts | 117° |
| 2026-04-19 04:57 | 52.56608 | 2.76276 | 37262 ft | 471 kts | 117° |
| 2026-04-19 04:58 | 52.54569 | 2.84572 | 37255 ft | 470 kts | 119° |
| 2026-04-19 04:58 | 52.51421 | 2.95902 | 37256 ft | 467 kts | 122° |
| 2026-04-19 04:59 | 52.49031 | 3.03841 | 37244 ft | 466 kts | 123° |
| 2026-04-19 04:59 | 52.46156 | 3.13405 | 37246 ft | 466 kts | 122° |
| 2026-04-19 05:00 | 52.43333 | 3.23016 | 37229 ft | 467 kts | 122° |
| 2026-04-19 05:00 | 52.40551 | 3.32556 | 37232 ft | 466 kts | 122° |
| 2026-04-19 05:01 | 52.37737 | 3.42128 | 37237 ft | 466 kts | 122° |
| 2026-04-19 05:01 | 52.34902 | 3.51687 | 37235 ft | 465 kts | 122° |
| 2026-04-19 05:02 | 52.32088 | 3.61123 | 37228 ft | 464 kts | 123° |
| 2026-04-19 05:02 | 52.29253 | 3.70606 | 37244 ft | 463 kts | 122° |
| 2026-04-19 05:03 | 52.26421 | 3.80062 | 37238 ft | 463 kts | 123° |
| 2026-04-19 05:03 | 52.23578 | 3.89487 | 37248 ft | 462 kts | 123° |
| 2026-04-19 05:04 | 52.20747 | 3.98822 | 37234 ft | 461 kts | 124° |
| 2026-04-19 05:04 | 52.17900 | 4.08165 | 37232 ft | 459 kts | 123° |
| 2026-04-19 05:05 | 52.15057 | 4.17482 | 37239 ft | 458 kts | 123° |
| 2026-04-19 05:05 | 52.12233 | 4.26739 | 37223 ft | 458 kts | 123° |
| 2026-04-19 05:06 | 52.09391 | 4.36015 | 37228 ft | 458 kts | 123° |
| 2026-04-19 05:06 | 52.06532 | 4.45294 | 37223 ft | 458 kts | 123° |
| 2026-04-19 05:07 | 52.03678 | 4.54498 | 37233 ft | 459 kts | 123° |
| 2026-04-19 05:07 | 52.00796 | 4.63758 | 37225 ft | 459 kts | 123° |
| 2026-04-19 05:08 | 51.96457 | 4.77660 | 37231 ft | 460 kts | 123° |
| 2026-04-19 05:09 | 51.93558 | 4.86914 | 37225 ft | 460 kts | 123° |
| 2026-04-19 05:09 | 51.90642 | 4.96175 | 37237 ft | 461 kts | 123° |
| 2026-04-19 05:10 | 51.87726 | 5.05380 | 37231 ft | 461 kts | 123° |
| 2026-04-19 05:10 | 51.84789 | 5.14632 | 37237 ft | 461 kts | 122° |
| 2026-04-19 05:11 | 51.81866 | 5.23818 | 37232 ft | 461 kts | 122° |
| 2026-04-19 05:11 | 51.78915 | 5.33054 | 37236 ft | 462 kts | 122° |
| 2026-04-19 05:12 | 51.75955 | 5.42272 | 37230 ft | 462 kts | 122° |
| 2026-04-19 05:12 | 51.72991 | 5.51484 | 37240 ft | 462 kts | 122° |
| 2026-04-19 05:13 | 51.70031 | 5.60648 | 37232 ft | 462 kts | 122° |
| 2026-04-19 05:13 | 51.67045 | 5.69855 | 37239 ft | 463 kts | 122° |
| 2026-04-19 05:14 | 51.64066 | 5.78985 | 37234 ft | 463 kts | 122° |
| 2026-04-19 05:14 | 51.61064 | 5.88165 | 37236 ft | 463 kts | 122° |
| 2026-04-19 05:15 | 51.58056 | 5.97359 | 37231 ft | 463 kts | 122° |
| 2026-04-19 05:15 | 51.55056 | 6.06469 | 37238 ft | 463 kts | 122° |
| 2026-04-19 05:16 | 51.52018 | 6.15620 | 37234 ft | 463 kts | 122° |
| 2026-04-19 05:16 | 51.49225 | 6.24989 | 37234 ft | 467 kts | 115° |
| 2026-04-19 05:17 | 51.46876 | 6.34648 | 37227 ft | 467 kts | 115° |
| 2026-04-19 05:17 | 51.44488 | 6.44376 | 37202 ft | 468 kts | 115° |
| 2026-04-19 05:18 | 51.42080 | 6.54124 | 37195 ft | 469 kts | 115° |
| 2026-04-19 05:18 | 51.39679 | 6.63777 | 37206 ft | 470 kts | 115° |
| 2026-04-19 05:19 | 51.37243 | 6.73522 | 37210 ft | 471 kts | 115° |
| 2026-04-19 05:19 | 51.34800 | 6.83298 | 37215 ft | 471 kts | 115° |
| 2026-04-19 05:20 | 51.32370 | 6.92988 | 37213 ft | 471 kts | 115° |
| 2026-04-19 05:20 | 51.29909 | 7.02718 | 37214 ft | 471 kts | 115° |
| 2026-04-19 05:21 | 51.26962 | 7.11898 | 37110 ft | 464 kts | 130° |
| 2026-04-19 05:21 | 51.24822 | 7.15720 | 35957 ft | 458 kts | 143° |
| 2026-04-19 05:21 | 51.22276 | 7.18630 | 34877 ft | 445 kts | 155° |
| 2026-04-19 05:21 | 51.19520 | 7.20807 | 33849 ft | 436 kts | 159° |
| 2026-04-19 05:22 | 51.16801 | 7.22910 | 32727 ft | 430 kts | 158° |
| 2026-04-19 05:22 | 51.14142 | 7.25013 | 31672 ft | 423 kts | 157° |
| 2026-04-19 05:22 | 51.11544 | 7.27088 | 30678 ft | 427 kts | 157° |
| 2026-04-19 05:22 | 51.08864 | 7.29257 | 29563 ft | 435 kts | 156° |
| 2026-04-19 05:23 | 51.06151 | 7.31489 | 28404 ft | 442 kts | 156° |
| 2026-04-19 05:23 | 51.03402 | 7.33775 | 27305 ft | 448 kts | 155° |
| 2026-04-19 05:23 | 51.00631 | 7.36090 | 26243 ft | 451 kts | 155° |
| 2026-04-19 05:23 | 50.97834 | 7.38421 | 25215 ft | 454 kts | 155° |
| 2026-04-19 05:24 | 50.95029 | 7.40743 | 24224 ft | 455 kts | 155° |
| 2026-04-19 05:24 | 50.92220 | 7.43054 | 23195 ft | 455 kts | 155° |
| 2026-04-19 05:24 | 50.89404 | 7.45359 | 22077 ft | 455 kts | 155° |
| 2026-04-19 05:24 | 50.86587 | 7.47660 | 21001 ft | 454 kts | 155° |
| 2026-04-19 05:25 | 50.83818 | 7.49921 | 19978 ft | 453 kts | 155° |
| 2026-04-19 05:25 | 50.81017 | 7.52212 | 18982 ft | 450 kts | 155° |
| 2026-04-19 05:25 | 50.78242 | 7.54480 | 17939 ft | 448 kts | 155° |
| 2026-04-19 05:25 | 50.75506 | 7.56714 | 17385 ft | 434 kts | 155° |
| 2026-04-19 05:26 | 50.72885 | 7.58856 | 17101 ft | 414 kts | 155° |
| 2026-04-19 05:26 | 50.70381 | 7.60893 | 16911 ft | 395 kts | 156° |
| 2026-04-19 05:26 | 50.68016 | 7.62815 | 16872 ft | 374 kts | 156° |
| 2026-04-19 05:26 | 50.65747 | 7.64659 | 16609 ft | 360 kts | 156° |
| 2026-04-19 05:27 | 50.63556 | 7.66429 | 16343 ft | 349 kts | 156° |
| 2026-04-19 05:27 | 50.61422 | 7.68148 | 16085 ft | 338 kts | 156° |
| 2026-04-19 05:27 | 50.59360 | 7.69808 | 15838 ft | 328 kts | 157° |
| 2026-04-19 05:27 | 50.57346 | 7.71422 | 15605 ft | 323 kts | 157° |
| 2026-04-19 05:28 | 50.55366 | 7.73006 | 15302 ft | 321 kts | 157° |
| 2026-04-19 05:28 | 50.53380 | 7.74599 | 14946 ft | 319 kts | 157° |
| 2026-04-19 05:28 | 50.51401 | 7.76189 | 14585 ft | 318 kts | 157° |
| 2026-04-19 05:28 | 50.49432 | 7.77771 | 14228 ft | 316 kts | 157° |
| 2026-04-19 05:29 | 50.47478 | 7.79338 | 13859 ft | 315 kts | 157° |
| 2026-04-19 05:29 | 50.45549 | 7.80880 | 13481 ft | 314 kts | 157° |
| 2026-04-19 05:29 | 50.43601 | 7.82507 | 13119 ft | 314 kts | 151° |
| 2026-04-19 05:29 | 50.41871 | 7.84550 | 12822 ft | 315 kts | 145° |
| 2026-04-19 05:30 | 50.40155 | 7.86693 | 12526 ft | 314 kts | 145° |
| 2026-04-19 05:30 | 50.38443 | 7.88821 | 12230 ft | 313 kts | 145° |
| 2026-04-19 05:30 | 50.36744 | 7.90924 | 11935 ft | 311 kts | 145° |
| 2026-04-19 05:30 | 50.35042 | 7.93024 | 11633 ft | 310 kts | 145° |
| 2026-04-19 05:31 | 50.33352 | 7.95108 | 11336 ft | 308 kts | 145° |
| 2026-04-19 05:31 | 50.31692 | 7.97162 | 11045 ft | 307 kts | 145° |
| 2026-04-19 05:31 | 50.30023 | 7.99226 | 10751 ft | 305 kts | 145° |
| 2026-04-19 05:31 | 50.28360 | 8.01293 | 10452 ft | 304 kts | 143° |
| 2026-04-19 05:32 | 50.26920 | 8.03706 | 10166 ft | 303 kts | 128° |
| 2026-04-19 05:32 | 50.25946 | 8.06609 | 10003 ft | 303 kts | 112° |
| 2026-04-19 05:32 | 50.25389 | 8.09809 | 9896 ft | 305 kts | 105° |
| 2026-04-19 05:32 | 50.24877 | 8.13027 | 9778 ft | 305 kts | 105° |
| 2026-04-19 05:33 | 50.24368 | 8.16206 | 9670 ft | 304 kts | 106° |
| 2026-04-19 05:33 | 50.23852 | 8.19404 | 9548 ft | 304 kts | 106° |
| 2026-04-19 05:33 | 50.23329 | 8.22611 | 9434 ft | 303 kts | 106° |
| 2026-04-19 05:33 | 50.22806 | 8.25798 | 9318 ft | 302 kts | 106° |
| 2026-04-19 05:34 | 50.22285 | 8.28983 | 9203 ft | 302 kts | 105° |
| 2026-04-19 05:34 | 50.21776 | 8.32111 | 9093 ft | 301 kts | 105° |
| 2026-04-19 05:34 | 50.21126 | 8.35206 | 8973 ft | 298 kts | 118° |
| 2026-04-19 05:34 | 50.19979 | 8.37893 | 8870 ft | 295 kts | 135° |
| 2026-04-19 05:35 | 50.18423 | 8.39927 | 8745 ft | 290 kts | 152° |
| 2026-04-19 05:35 | 50.16605 | 8.41218 | 8618 ft | 286 kts | 164° |
| 2026-04-19 05:35 | 50.14719 | 8.42203 | 8501 ft | 283 kts | 172° |
| 2026-04-19 05:35 | 50.12792 | 8.42183 | 8380 ft | 275 kts | 198° |
| 2026-04-19 05:36 | 50.11125 | 8.40929 | 8269 ft | 268 kts | 222° |
| 2026-04-19 05:36 | 50.09969 | 8.38704 | 8172 ft | 264 kts | 246° |
| 2026-04-19 05:36 | 50.09304 | 8.36031 | 8010 ft | 264 kts | 251° |
| 2026-04-19 05:36 | 50.08669 | 8.33376 | 7756 ft | 258 kts | 251° |
| 2026-04-19 05:37 | 50.08044 | 8.30792 | 7503 ft | 252 kts | 250° |
| 2026-04-19 05:37 | 50.07428 | 8.28270 | 7255 ft | 246 kts | 250° |
| 2026-04-19 05:37 | 50.06820 | 8.25795 | 7008 ft | 243 kts | 250° |
| 2026-04-19 05:37 | 50.06228 | 8.23381 | 6767 ft | 240 kts | 250° |
| 2026-04-19 05:38 | 50.05637 | 8.20962 | 6509 ft | 238 kts | 250° |
| 2026-04-19 05:38 | 50.05049 | 8.18564 | 6263 ft | 236 kts | 251° |
| 2026-04-19 05:38 | 50.04502 | 8.16201 | 6123 ft | 228 kts | 258° |
| 2026-04-19 05:38 | 50.04577 | 8.13795 | 6015 ft | 225 kts | 291° |
| 2026-04-19 05:39 | 50.05504 | 8.11860 | 5920 ft | 228 kts | 323° |
| 2026-04-19 05:39 | 50.06991 | 8.11023 | 5820 ft | 233 kts | 355° |
| 2026-04-19 05:39 | 50.08560 | 8.11566 | 5711 ft | 240 kts | 27° |
| 2026-04-19 05:39 | 50.09761 | 8.13375 | 5614 ft | 245 kts | 59° |
| 2026-04-19 05:40 | 50.10382 | 8.15870 | 5511 ft | 248 kts | 72° |
| 2026-04-19 05:40 | 50.10846 | 8.18455 | 5411 ft | 248 kts | 73° |
| 2026-04-19 05:40 | 50.11283 | 8.21058 | 5306 ft | 248 kts | 74° |
| 2026-04-19 05:40 | 50.11719 | 8.23654 | 5206 ft | 247 kts | 72° |
| 2026-04-19 05:41 | 50.12232 | 8.26230 | 5091 ft | 259 kts | 70° |
| 2026-04-19 05:41 | 50.12816 | 8.29005 | 4981 ft | 274 kts | 70° |
| 2026-04-19 05:41 | 50.13406 | 8.31808 | 4984 ft | 277 kts | 70° |
| 2026-04-19 05:41 | 50.14003 | 8.34665 | 4989 ft | 278 kts | 70° |
| 2026-04-19 05:42 | 50.14604 | 8.37537 | 4988 ft | 277 kts | 70° |
| 2026-04-19 05:42 | 50.15204 | 8.40407 | 4994 ft | 278 kts | 70° |
| 2026-04-19 05:42 | 50.15793 | 8.43252 | 4993 ft | 279 kts | 70° |
| 2026-04-19 05:42 | 50.16390 | 8.46127 | 5010 ft | 279 kts | 70° |
| 2026-04-19 05:43 | 50.16990 | 8.49016 | 5008 ft | 279 kts | 70° |
| 2026-04-19 05:43 | 50.17584 | 8.51900 | 5011 ft | 279 kts | 70° |
| 2026-04-19 05:43 | 50.17977 | 8.53816 | 5007 ft | 278 kts | 70° |
| 2026-04-19 05:43 | 50.18560 | 8.56691 | 5012 ft | 280 kts | 70° |
| 2026-04-19 05:44 | 50.19343 | 8.60532 | 5010 ft | 279 kts | 70° |
| 2026-04-19 05:44 | 50.19738 | 8.62489 | 5009 ft | 280 kts | 70° |
| 2026-04-19 05:44 | 50.20327 | 8.65396 | 5008 ft | 280 kts | 70° |
| 2026-04-19 05:44 | 50.20917 | 8.68275 | 5009 ft | 282 kts | 70° |
| 2026-04-19 05:45 | 50.21504 | 8.71197 | 5008 ft | 281 kts | 70° |
| 2026-04-19 05:45 | 50.22095 | 8.74122 | 5004 ft | 282 kts | 69° |
| 2026-04-19 05:45 | 50.22679 | 8.77058 | 5008 ft | 282 kts | 70° |
| 2026-04-19 05:45 | 50.23263 | 8.79990 | 5005 ft | 283 kts | 70° |
| 2026-04-19 05:46 | 50.23832 | 8.82860 | 4997 ft | 269 kts | 70° |
| 2026-04-19 05:46 | 50.24363 | 8.85568 | 5004 ft | 254 kts | 70° |
| 2026-04-19 05:46 | 50.24772 | 8.88235 | 5002 ft | 253 kts | 86° |
| 2026-04-19 05:46 | 50.24426 | 8.90894 | 5001 ft | 255 kts | 118° |
| 2026-04-19 05:47 | 50.23285 | 8.92958 | 5003 ft | 252 kts | 147° |
| 2026-04-19 05:47 | 50.21745 | 8.94199 | 5003 ft | 248 kts | 169° |
| 2026-04-19 05:47 | 50.20063 | 8.94728 | 5002 ft | 243 kts | 174° |
| 2026-04-19 05:47 | 50.18453 | 8.95189 | 5012 ft | 227 kts | 174° |
| 2026-04-19 05:48 | 50.16907 | 8.95412 | 4999 ft | 219 kts | 191° |
| 2026-04-19 05:48 | 50.15476 | 8.94764 | 5005 ft | 212 kts | 213° |
| 2026-04-19 05:48 | 50.14343 | 8.93387 | 5008 ft | 205 kts | 234° |
| 2026-04-19 05:48 | 50.13654 | 8.91521 | 5007 ft | 201 kts | 250° |
| 2026-04-19 05:49 | 50.13146 | 8.89525 | 5001 ft | 191 kts | 253° |
| 2026-04-19 05:49 | 50.12699 | 8.87644 | 5001 ft | 181 kts | 253° |
| 2026-04-19 05:49 | 50.12268 | 8.85808 | 4944 ft | 181 kts | 253° |
| 2026-04-19 05:49 | 50.11837 | 8.83974 | 4744 ft | 179 kts | 253° |
| 2026-04-19 05:50 | 50.11407 | 8.82150 | 4498 ft | 180 kts | 254° |
| 2026-04-19 05:50 | 50.10977 | 8.80323 | 4245 ft | 179 kts | 254° |
| 2026-04-19 05:50 | 50.10547 | 8.78500 | 3990 ft | 179 kts | 255° |
| 2026-04-19 05:50 | 50.10119 | 8.76690 | 3737 ft | 180 kts | 255° |
| 2026-04-19 05:51 | 50.09687 | 8.74859 | 3483 ft | 180 kts | 254° |
| 2026-04-19 05:51 | 50.09251 | 8.73019 | 3227 ft | 180 kts | 255° |
| 2026-04-19 05:51 | 50.08818 | 8.71188 | 2966 ft | 180 kts | 256° |
| 2026-04-19 05:51 | 50.08384 | 8.69357 | 2704 ft | 181 kts | 257° |
| 2026-04-19 05:52 | 50.07946 | 8.67507 | 2446 ft | 181 kts | 256° |
| 2026-04-19 05:52 | 50.07522 | 8.65737 | 2202 ft | 165 kts | 257° |
| 2026-04-19 05:52 | 50.07136 | 8.64116 | 1954 ft | 154 kts | 257° |
| 2026-04-19 05:52 | 50.06776 | 8.62600 | 1743 ft | 147 kts | 257° |
| 2026-04-19 05:53 | 50.06428 | 8.61133 | 1521 ft | 145 kts | 257° |
| 2026-04-19 05:53 | 50.06075 | 8.59642 | 1309 ft | 145 kts | 257° |
| 2026-04-19 05:53 | 50.05726 | 8.58176 | 1086 ft | 145 kts | 253° |
| 2026-04-19 05:53 | 50.05375 | 8.56723 | 904 ft | 141 kts | 251° |
| 2026-04-19 05:54 | 50.05038 | 8.55293 | 675 ft | 140 kts | 256° |
| 2026-04-19 05:54 | 50.04713 | 8.53885 | 461 ft | 139 kts | 250° |
| 2026-04-19 05:54 | 50.04372 | 8.52515 | 349 ft | 126 kts | 255° |
| 2026-04-19 05:54 | 50.04111 | 8.51387 | 332 ft | 95 kts | 250° |
| 2026-04-19 05:55 | 50.03920 | 8.50600 | 322 ft | 53 kts | 249° |
| 2026-04-19 05:55 | 50.03816 | 8.50166 | 318 ft | 39 kts | 250° |
| 2026-04-19 05:55 | 50.03726 | 8.49829 | 313 ft | 21 kts | 230° |
| 2026-04-19 05:55 | 50.03654 | 8.49769 | 313 ft | 10 kts | 175° |
| 2026-04-19 05:56 | 50.03593 | 8.49798 | 315 ft | 7 kts | 147° |
| 2026-04-19 05:56 | 50.03574 | 8.49825 | 317 ft | 2 kts | 133° |
| 2026-04-19 05:56 | 50.03562 | 8.49852 | 318 ft | 6 kts | 120° |
| 2026-04-19 05:56 | 50.03551 | 8.49944 | 319 ft | 12 kts | 86° |
| 2026-04-19 05:57 | 50.03582 | 8.50097 | 321 ft | 18 kts | 70° |
| 2026-04-19 05:57 | 50.03629 | 8.50286 | 325 ft | 18 kts | 70° |
| 2026-04-19 05:57 | 50.03668 | 8.50454 | 325 ft | 15 kts | 70° |
| 2026-04-19 05:57 | 50.03701 | 8.50594 | 329 ft | 13 kts | 70° |
| 2026-04-19 05:58 | 50.03729 | 8.50716 | 329 ft | 13 kts | 70° |
| 2026-04-19 05:58 | 50.03752 | 8.50811 | 331 ft | 4 kts | 69° |
| 2026-04-19 05:58 | 50.03760 | 8.50841 | 330 ft | 2 kts | 69° |
| 2026-04-19 05:58 | 50.03763 | 8.50855 | 334 ft | 1 kts | 69° |
| 2026-04-19 05:59 | 50.03764 | 8.50856 | 334 ft | 0 kts | 69° |
| 2026-04-19 05:59 | 50.03765 | 8.50861 | 334 ft | 1 kts | 69° |
| 2026-04-19 05:59 | 50.03771 | 8.50884 | 331 ft | 4 kts | 68° |
| 2026-04-19 05:59 | 50.03784 | 8.50936 | 333 ft | 7 kts | 69° |
| 2026-04-19 06:00 | 50.03805 | 8.51023 | 334 ft | 11 kts | 69° |
| 2026-04-19 06:00 | 50.03836 | 8.51152 | 336 ft | 15 kts | 70° |
| 2026-04-19 06:00 | 50.03876 | 8.51325 | 335 ft | 19 kts | 70° |
| 2026-04-19 06:00 | 50.03928 | 8.51539 | 334 ft | 23 kts | 69° |
| 2026-04-19 06:01 | 50.03988 | 8.51791 | 334 ft | 26 kts | 69° |
| 2026-04-19 06:01 | 50.04056 | 8.52071 | 338 ft | 28 kts | 69° |
| 2026-04-19 06:01 | 50.04119 | 8.52332 | 349 ft | 24 kts | 70° |
| 2026-04-19 06:01 | 50.04174 | 8.52561 | 354 ft | 21 kts | 69° |
| 2026-04-19 06:02 | 50.04223 | 8.52769 | 354 ft | 21 kts | 69° |
| 2026-04-19 06:02 | 50.04278 | 8.52994 | 360 ft | 23 kts | 69° |
| 2026-04-19 06:02 | 50.04333 | 8.53237 | 365 ft | 23 kts | 69° |
| 2026-04-19 06:02 | 50.04386 | 8.53464 | 374 ft | 21 kts | 72° |
| 2026-04-19 06:03 | 50.04408 | 8.53702 | 375 ft | 24 kts | 84° |
| 2026-04-19 06:03 | 50.04426 | 8.53966 | 375 ft | 24 kts | 84° |
| 2026-04-19 06:03 | 50.04442 | 8.54210 | 375 ft | 22 kts | 84° |
| 2026-04-19 06:03 | 50.04453 | 8.54450 | 370 ft | 23 kts | 95° |
| 2026-04-19 06:04 | 50.04384 | 8.54687 | 363 ft | 25 kts | 133° |
| 2026-04-19 06:04 | 50.04221 | 8.54827 | 358 ft | 28 kts | 161° |
| 2026-04-19 06:04 | 50.04039 | 8.54930 | 359 ft | 27 kts | 159° |
| 2026-04-19 06:04 | 50.03874 | 8.55026 | 356 ft | 19 kts | 160° |
| 2026-04-19 06:05 | 50.03848 | 8.55119 | 349 ft | 8 kts | 58° |
| 2026-04-19 06:05 | 50.03873 | 8.55212 | 356 ft | 12 kts | 69° |
| 2026-04-19 06:05 | 50.03910 | 8.55365 | 355 ft | 18 kts | 69° |
| 2026-04-19 06:05 | 50.03952 | 8.55539 | 351 ft | 17 kts | 69° |
| 2026-04-19 06:06 | 50.03992 | 8.55707 | 349 ft | 16 kts | 70° |
| 2026-04-19 06:06 | 50.04030 | 8.55863 | 359 ft | 15 kts | 70° |
| 2026-04-19 06:06 | 50.04089 | 8.55961 | 356 ft | 12 kts | 2° |
| 2026-04-19 06:06 | 50.04173 | 8.55927 | 356 ft | 13 kts | 341° |
| 2026-04-19 06:07 | 50.04245 | 8.55971 | 357 ft | 12 kts | 60° |
| 2026-04-19 06:07 | 50.04297 | 8.56069 | 355 ft | 13 kts | 13° |
| 2026-04-19 06:07 | 50.04373 | 8.56033 | 358 ft | 13 kts | 340° |
| 2026-04-19 06:07 | 50.04474 | 8.55969 | 356 ft | 17 kts | 351° |
| 2026-04-19 06:08 | 50.04545 | 8.56020 | 362 ft | 9 kts | 54° |
| 2026-04-19 06:08 | 50.04579 | 8.56149 | 363 ft | 19 kts | 67° |
| 2026-04-19 06:08 | 50.04628 | 8.56346 | 357 ft | 19 kts | 69° |
| 2026-04-19 06:08 | 50.04660 | 8.56480 | 362 ft | 11 kts | 69° |
| 2026-04-19 06:09 | 50.04707 | 8.56562 | 361 ft | 10 kts | 47° |
| 2026-04-19 06:09 | 50.04752 | 8.56631 | 361 ft | 7 kts | 17° |
| 2026-04-19 06:09 | 50.04771 | 8.56616 | 360 ft | 2 kts | 313° |
| 2026-04-19 06:09 | 50.04779 | 8.56606 | 361 ft | 1 kts | 324° |
| 2026-04-19 06:10 | 50.04786 | 8.56600 | 361 ft | 1 kts | 328° |
| 2026-04-19 06:10 | 50.04798 | 8.56591 | 356 ft | 3 kts | 335° |
| 2026-04-19 06:10 | 50.04806 | 8.56586 | 358 ft | 0 kts | 338° |
| 2026-04-19 06:10 | 50.04809 | 8.56584 | 358 ft | 0 kts | 338° |
| 2026-04-19 06:11 | 50.04811 | 8.56583 | 357 ft | 0 kts | 339° |